Trenton, Alabama
Current Conditions -  °F | °C
As of 12:15 AM on Wednesday 28 Jan 2015 (Local Time) from K4A6 Reporting Station
Overcast Overcast  
Wind Chill: 30°   Ceiling: 2800
Heat Index: 37°   Visibility: 10mi
Dew Point: 25°   Wind: 10mph
Humidity: 60%   Direction: 10°N
Pressure: 30.2"   Gusts: NA
Location:  34.74°N, 86.25°W
Report Text: K4A6 280615Z AUTO 01009KT 10SM OVC028 03/M04 A3020 RMK AO2
Loading
Personal Weather Stations






























Interactive Weather Map New forecast layout! Learn more

10-Day Weather Forecast

Advertisements
Track Severe Weather on mobile